CPX713 Details

Departure: Incheon International Airport (RKSI)
Arrival: Tokyo-Narita International Airport (RJAA)
Route: SEL1S SEL G597 KAE Y437 TENAS L512 GTC Y303 KAMOH Y301 SHELY Y30 MELON NORMA


Current Weather Information
RKSI 200830Z 10005KT 060V130 5000 -RA BR BKN040 OVC080 10/06 Q1006 NOSIG
RJAA 200830Z 14007KT CAVOK 14/07 Q1017 NOSIG RMK A3005